Flight Track Log - Related Links

Times and Time Zones

All times are in EST time to prevent confusion due to time zone crossing. See the DAL2039 flight status page for this flight to view local times or setup timezone preferences in your user account.

Time Position Orientation Groundspeed Altitude Reporting Facility
EST Latitude Longitude Course Direction KTS MPH feet Rate Location/Type
Sun 03:22:37 PM 38.8856 -77.0611 240° Southwest 181 208 2,100  Level Washington Center
Sun 03:23:38 PM 38.9308 -77.1181 316° Northwest 254 292 4,800 3,197 Climbing Washington Center
Sun 03:24:39 PM 38.9842 -77.1806 318° Northwest 268 308 8,600 2,777 Climbing Washington Center
Sun 03:25:00 PM 38.5860 -77.4573 236° Southwest  Level Estimated
Sun 03:25:39 PM 39.0417 -77.2433 320° Northwest 280 322 10,400  Level Washington Center
Sun 03:26:00 PM 38.5330 -77.5738 240° Southwest  Level FlightAware Approximate
Sun 03:26:40 PM 39.0406 -77.3342 269° West 310 357 11,100  Level Washington Center
Sun 03:27:00 PM 38.4798 -77.6902 240° Southwest  Level FlightAware Approximate
Sun 03:27:37 PM 38.9603 -77.3961 211° Southwest 358 412 12,800  Level Washington Center
Sun 03:28:38 PM 38.8717 -77.4608 210° Southwest 373 429 14,200 1,091 Climbing Washington Center
Sun 03:29:38 PM 38.7894 -77.5225 210° Southwest 373 429 15,000 984 Climbing Washington Center
Sun 03:30:40 PM 38.6989 -77.5894 210° Southwest 373 429 16,200 1,850 Climbing Washington Center
Sun 03:31:38 PM 38.6039 -77.6586 210° Southwest 378 435 18,700 2,218 Climbing Washington Center
Sun 03:32:39 PM 38.5297 -77.7150 211° Southwest 383 441 20,600 2,231 Climbing Washington Center
Sun 03:33:39 PM 38.4442 -77.8450 230° Southwest 393 452 23,200 2,050 Climbing Washington Center
Sun 03:34:39 PM 38.3667 -77.9672 231° Southwest 398 458 24,700 1,678 Climbing Washington Center
Sun 03:35:37 PM 38.3139 -78.0950 242° Southwest 422 486 26,500 1,664 Climbing Washington Center
Sun 03:36:38 PM 38.2467 -78.2250 237° Southwest 440 506 28,000 1,587 Climbing Washington Center
Sun 03:37:38 PM 38.1769 -78.3572 236° Southwest 452 520 29,700 1,884 Climbing Washington Center
Sun 03:38:39 PM 38.1133 -78.4894 239° Southwest 452 520 31,800 1,983 Climbing Washington Center
Sun 03:39:39 PM 38.0681 -78.6275 247° West 429 494 33,700 1,729 Climbing Washington Center
Sun 03:40:37 PM 38.0183 -78.7786 247° West 419 482 35,200 1,160 Climbing Washington Center
Sun 03:41:38 PM 37.9708 -78.9161 246° West 419 482 36,000 393 Climbing Washington Center
Sun 03:42:39 PM 37.9275 -79.0431 247° West 414 476 36,000  Level Washington Center
Sun 03:43:37 PM 37.8722 -79.1539 238° Southwest 409 471 36,000  Level Washington Center
Sun 03:44:38 PM 37.7961 -79.2578 227° Southwest 409 471 36,000  Level Washington Center
Sun 03:45:39 PM 37.7175 -79.3669 228° Southwest 415 478 36,000  Level Washington Center
Sun 03:46:37 PM 37.6303 -79.4858 227° Southwest 423 487 36,000  Level Washington Center
Sun 03:47:38 PM 37.5606 -79.5819 228° Southwest 423 487 36,000  Level Washington Center
Sun 03:48:39 PM 37.4753 -79.6978 227° Southwest 423 487 36,000  Level Washington Center
Sun 03:51:06 PM 37.2733 -79.9703 227° Southwest 444 511 36,000  Level Atlanta Center
Sun 03:52:06 PM 37.1933 -80.0786 227° Southwest 433 498 36,000  Level Atlanta Center
Sun 03:53:06 PM 37.1214 -80.1733 226° Southwest 428 493 36,000  Level Atlanta Center
Sun 03:54:06 PM 37.0414 -80.2814 227° Southwest 428 493 36,000  Level Atlanta Center
Sun 03:55:06 PM 36.9631 -80.3864 227° Southwest 428 493 36,000  Level Atlanta Center
Sun 03:56:06 PM 36.8831 -80.4939 227° Southwest 428 493 36,000  Level Atlanta Center
Sun 03:57:06 PM 36.7967 -80.6092 227° Southwest 428 493 36,000  Level Atlanta Center
Sun 03:58:06 PM 36.7261 -80.7003 226° Southwest 422 486 36,000  Level Atlanta Center
Sun 03:59:06 PM 36.6497 -80.8069 228° Southwest 417 480 36,000  Level Atlanta Center
Sun 04:00:06 PM 36.5692 -80.9136 227° Southwest 417 480 36,000  Level Atlanta Center
Sun 04:01:06 PM 36.4883 -81.0175 226° Southwest 417 480 36,000  Level Atlanta Center
Sun 04:02:06 PM 36.4094 -81.1236 227° Southwest 417 480 36,000  Level Atlanta Center
Sun 04:03:06 PM 36.3286 -81.2297 227° Southwest 417 480 36,000  Level Atlanta Center
Sun 04:04:06 PM 36.2394 -81.3486 227° Southwest 422 486 36,000  Level Atlanta Center
Sun 04:05:06 PM 36.1583 -81.4517 226° Southwest 422 486 36,000  Level Atlanta Center
Sun 04:06:06 PM 36.0792 -81.5569 227° Southwest 428 493 36,000  Level Atlanta Center
Sun 04:07:06 PM 35.9978 -81.6647 227° Southwest 428 493 36,000  Level Atlanta Center
Sun 04:08:06 PM 35.9164 -81.7722 227° Southwest 428 493 36,000  Level Atlanta Center
Sun 04:09:06 PM 35.8347 -81.8744 225° Southwest 428 493 36,000  Level Atlanta Center
Sun 04:10:06 PM 35.7531 -81.9764 225° Southwest 428 493 36,000 -400 Level Atlanta Center
Sun 04:11:06 PM 35.6756 -82.0781 227° Southwest 428 493 35,200 -500 Descending Atlanta Center
Sun 04:12:06 PM 35.5917 -82.1872 227° Southwest 428 493 35,000 -100 Descending Atlanta Center
Sun 04:13:06 PM 35.5097 -82.2886 225° Southwest 433 498 35,000 -350 Level Atlanta Center
Sun 04:14:06 PM 35.4275 -82.3897 225° Southwest 428 493 34,300 -800 Descending Atlanta Center
Sun 04:15:06 PM 35.3392 -82.4856 222° Southwest 428 493 33,400 -900 Descending Atlanta Center
Sun 04:16:06 PM 35.2714 -82.5633 223° Southwest 422 486 32,500 -1,350 Descending Atlanta Center
Sun 04:17:06 PM 35.1661 -82.6769 221° Southwest 417 480 30,700 1,750 Descending Atlanta Center
Sun 04:18:06 PM 35.0919 -82.7594 222° Southwest 417 480 36,000 -3,300 Climbing Atlanta Center
Sun 04:19:06 PM 35.0072 -82.8519 222° Southwest 412 474 24,100 -6,000 Descending Atlanta Center
Sun 04:20:06 PM 34.9164 -82.9494 221° Southwest 412 474 24,000 -50 Descending Atlanta Center
Sun 04:21:06 PM 34.8419 -83.0239 219° Southwest 407 468 24,000  Level Atlanta Center
Sun 04:22:06 PM 34.7592 -83.1108 221° Southwest 399 459 24,000  Level Atlanta Center
Sun 04:23:06 PM 34.6700 -83.2156 224° Southwest 399 459 24,000  Level Atlanta Center
Sun 04:24:06 PM 34.5872 -83.3044 221° Southwest 404 465 24,000 -150 Level Atlanta Center
Sun 04:25:06 PM 34.5042 -83.3936 222° Southwest 404 465 23,700 -1,450 Descending Atlanta Center
Sun 04:26:06 PM 34.4233 -83.4797 221° Southwest 404 465 21,100 -2,650 Descending Atlanta Center
Sun 04:27:06 PM 34.3444 -83.5658 222° Southwest 397 457 18,400 -2,600 Descending Atlanta Center
Sun 04:28:06 PM 34.2694 -83.6492 223° Southwest 380 437 15,900 -2,500 Descending Atlanta Center
Sun 04:29:06 PM 34.1925 -83.7272 220° Southwest 374 430 13,400 -1,750 Descending Atlanta Center
Sun 04:30:06 PM 34.1239 -83.8031 222° Southwest 349 402 12,400 -700 Descending Atlanta Center
Sun 04:31:06 PM 34.0656 -83.8683 223° Southwest 308 354 12,000 -733 Descending Atlanta Center
Sun 04:31:36 PM 34.0333 -83.9000 219° Southwest 295 339 11,300 -1,600 Descending Atlanta TRACON
Sun 04:32:36 PM 33.9833 -83.9667 228° Southwest 268 308 9,600 -1,100 Descending Atlanta TRACON
Sun 04:33:36 PM 33.9000 -83.9667 180° South 292 336 9,100 -333 Descending Atlanta TRACON
Sun 04:34:06 PM 33.8672 -83.9636 176° South 279 321 9,100 -467 Level Atlanta Center
Sun 04:35:06 PM 33.7900 -83.9614 179° South 279 321 8,400 -750 Descending Atlanta Center
Sun 04:36:06 PM 33.7044 -83.9764 188° South 279 321 7,600 -700 Descending Atlanta Center
Sun 04:37:06 PM 33.6378 -84.0089 202° Southwest 273 314 7,000 -800 Descending Atlanta Center
Sun 04:38:06 PM 33.6294 -84.0786 262° West 209 241 6,000 -960 Descending Atlanta Center
Sun 04:39:36 PM 33.6333 -84.1833 273° West 213 245 4,600 -917 Descending Atlanta TRACON
Sun 04:40:30 PM 33.6333 -84.2500 270° West 201 231 3,800 -950 Descending Atlanta TRACON
Sun 04:41:36 PM 33.6333 -84.3167 270° West 186 214 2,700 -905 Descending Atlanta TRACON
Sun 04:42:36 PM 33.6333 -84.3667 270° West 140 161 1,900 -800 Descending Atlanta TRACON

Login

Don't have an account? Register now (free) for customized features, flight alerts, and more!